Time;durP1;ratioP1;P1;durP2;ratioP2;P2;SDS_P1;SDS_P2;PMS_P1;PMS_P2;Temp;Humidity;BMP_temperature;BMP_pressure;BME280_temperature;BME280_humidity;BME280_pressure;Samples;Min_cycle;Max_cycle;Signal;HPM_P1;HPM_P2
2023/09/29 00:01:18;;;;;;;3.55;1.27;;;;;;;15.84;60.05;100330.59;5290862;26;20127;-94
2023/09/29 00:03:45;;;;;;;0.00;0.00;;;;;;;15.70;60.04;100338.22;5308420;26;20068;-95
2023/09/29 00:06:10;;;;;;;0.60;0.60;;;;;;;15.79;60.05;100336.03;5290749;26;20055;-94
2023/09/29 00:08:35;;;;;;;0.22;0.22;;;;;;;15.64;60.04;100334.12;5290403;26;20404;-95
2023/09/29 00:11:01;;;;;;;2.75;0.98;;;;;;;15.88;60.06;100326.94;5289698;26;20419;-95
2023/09/29 00:13:26;;;;;;;0.50;0.50;;;;;;;15.67;60.04;100335.75;5307973;26;20060;-93
2023/09/29 00:15:52;;;;;;;0.40;0.40;;;;;;;15.55;60.04;100334.47;5289942;26;20111;-95
2023/09/29 00:18:17;;;;;;;1.20;1.10;;;;;;;15.30;60.02;100332.88;5290193;26;20049;-95
2023/09/29 00:20:42;;;;;;;1.23;0.75;;;;;;;15.48;60.04;100333.03;5289862;26;20181;-94
2023/09/29 00:23:09;;;;;;;3.35;0.73;;;;;;;15.37;60.03;100325.59;5290153;26;20056;-94
2023/09/29 00:25:34;;;;;;;0.70;0.40;;;;;;;15.47;60.03;100332.19;5290135;26;20815;-94
2023/09/29 00:28:00;;;;;;;0.15;0.10;;;;;;;15.42;60.03;100331.53;5290325;26;20057;-95
2023/09/29 00:30:26;;;;;;;0.82;0.45;;;;;;;15.43;60.03;100322.72;5308453;26;20121;-94
2023/09/29 00:32:52;;;;;;;0.82;0.82;;;;;;;15.62;60.04;100331.56;5290169;26;20072;-94
2023/09/29 00:35:24;;;;;;;1.30;0.47;;;;;;;15.40;60.04;100324.63;5289763;26;20055;-93
2023/09/29 00:37:56;;;;;;;1.37;1.23;;;;;;;15.31;60.03;100321.47;5290699;26;20116;-93
2023/09/29 00:40:22;;;;;;;0.20;0.20;;;;;;;15.25;60.02;100321.75;5289401;26;20123;-92
2023/09/29 00:42:48;;;;;;;0.22;0.20;;;;;;;15.49;60.04;100325.09;5289219;26;20068;-92
2023/09/29 00:45:16;;;;;;;3.28;1.27;;;;;;;15.29;60.02;100314.59;5289476;26;20070;-92
2023/09/29 00:47:42;;;;;;;0.00;0.00;;;;;;;15.34;60.02;100316.09;5288991;26;20065;-93
2023/09/29 00:50:09;;;;;;;2.40;0.62;;;;;;;15.43;60.03;100320.12;5289530;26;20135;-93
2023/09/29 00:52:38;;;;;;;0.47;0.47;;;;;;;15.31;60.03;100316.22;5289511;26;20079;-92
2023/09/29 00:55:06;;;;;;;0.10;0.10;;;;;;;15.41;60.03;100321.09;5290400;26;20150;-93
2023/09/29 00:57:33;;;;;;;0.00;0.00;;;;;;;15.40;60.03;100317.63;5289892;26;20034;-92
2023/09/29 00:59:59;;;;;;;1.23;1.23;;;;;;;15.31;60.02;100315.37;5290236;26;20057;-94
2023/09/29 01:02:25;;;;;;;1.02;0.75;;;;;;;15.32;60.01;100315.31;5289564;26;20111;-94
2023/09/29 01:04:50;;;;;;;0.28;0.28;;;;;;;15.22;60.01;100310.53;5307670;26;20099;-94
2023/09/29 01:07:16;;;;;;;0.10;0.10;;;;;;;15.30;60.02;100314.53;5289172;26;20060;-93
2023/09/29 01:09:41;;;;;;;0.00;0.00;;;;;;;15.30;60.02;100314.53;5307818;26;20116;-93
2023/09/29 01:12:10;;;;;;;0.22;0.22;;;;;;;15.34;60.03;100320.47;5289595;26;20425;-93
2023/09/29 01:14:35;;;;;;;0.32;0.32;;;;;;;15.36;60.02;100318.66;5308413;26;21052;-94
2023/09/29 01:17:01;;;;;;;0.50;0.50;;;;;;;15.37;60.03;100312.47;5308032;26;20095;-93
2023/09/29 01:19:26;;;;;;;0.00;0.00;;;;;;;15.32;60.03;100314.44;5289285;26;20465;-93
2023/09/29 01:21:52;;;;;;;0.98;0.55;;;;;;;15.29;60.02;100317.22;5289406;26;20166;-93
2023/09/29 01:24:19;;;;;;;1.20;1.10;;;;;;;15.35;60.02;100316.94;5289578;26;20075;-93
2023/09/29 01:26:44;;;;;;;0.60;0.20;;;;;;;15.31;60.03;100316.22;5307969;26;20095;-94
2023/09/29 01:29:11;;;;;;;0.65;0.62;;;;;;;15.12;60.01;100319.69;5289852;26;20378;-94
2023/09/29 01:31:37;;;;;;;0.05;0.05;;;;;;;15.19;60.01;100308.88;5308128;26;20064;-94
2023/09/29 01:34:04;;;;;;;0.05;0.05;;;;;;;15.26;60.02;100307.69;5289876;26;20024;-94
2023/09/29 01:36:30;;;;;;;0.20;0.20;;;;;;;15.31;60.03;100310.97;5289379;26;20044;-94
2023/09/29 01:38:55;;;;;;;0.62;0.62;;;;;;;15.23;60.02;100301.75;5289586;26;20337;-93
2023/09/29 01:41:21;;;;;;;0.57;0.57;;;;;;;15.05;60.01;100311.22;5307870;26;20064;-94
2023/09/29 01:43:47;;;;;;;0.00;0.00;;;;;;;15.01;60.00;100307.03;5289322;26;20067;-93
2023/09/29 01:46:15;;;;;;;2.00;0.65;;;;;;;15.00;60.00;100308.78;5289593;26;20070;-94
2023/09/29 01:48:41;;;;;;;0.75;0.62;;;;;;;15.01;60.00;100309.66;5308630;26;20121;-94
2023/09/29 01:51:06;;;;;;;0.62;0.62;;;;;;;14.93;60.00;100309.97;5289306;26;20186;-94
2023/09/29 01:53:32;;;;;;;0.55;0.55;;;;;;;15.01;60.00;100309.66;5289444;26;20413;-94
2023/09/29 01:55:58;;;;;;;1.12;0.60;;;;;;;15.10;60.02;100305.78;5289844;26;20056;-96
2023/09/29 01:58:24;;;;;;;0.20;0.20;;;;;;;14.90;60.00;100310.06;5307793;26;20072;-95
2023/09/29 02:00:49;;;;;;;0.90;0.55;;;;;;;14.84;59.99;100307.72;5289869;26;20076;-94
2023/09/29 02:03:15;;;;;;;2.35;1.30;;;;;;;14.83;59.99;100311.25;5289627;26;20151;-94
2023/09/29 02:05:41;;;;;;;0.47;0.40;;;;;;;14.80;60.00;100316.62;5289593;26;20052;-95
2023/09/29 02:08:06;;;;;;;0.32;0.25;;;;;;;14.79;60.00;100312.28;5289650;26;20060;-95
2023/09/29 02:10:31;;;;;;;0.40;0.40;;;;;;;14.80;60.00;100311.37;5289681;26;20131;-94
2023/09/29 02:12:58;;;;;;;0.43;0.43;;;;;;;14.77;59.99;100314.13;5289744;26;20056;-93
2023/09/29 02:15:24;;;;;;;4.53;1.08;;;;;;;14.71;59.99;100309.97;5289405;26;20025;-94
2023/09/29 02:17:50;;;;;;;1.00;0.80;;;;;;;14.70;60.00;100313.53;5297983;26;20032;-91
2023/09/29 02:20:17;;;;;;;0.37;0.37;;;;;;;14.71;59.98;100314.38;5305046;26;20084;-93
2023/09/29 02:22:42;;;;;;;0.90;0.73;;;;;;;14.79;60.00;100309.66;5295844;26;20066;-94
2023/09/29 02:25:12;;;;;;;0.20;0.20;;;;;;;14.73;60.00;100308.16;5290463;26;20067;-94
2023/09/29 02:27:38;;;;;;;;;;;;;;;14.87;60.00;100302.34;5290839;26;20098;-94
2023/09/29 02:30:04;;;;;;;0.47;0.47;;;;;;;14.72;59.99;100310.84;5307448;26;20297;-94
2023/09/29 02:32:30;;;;;;;0.30;0.30;;;;;;;14.70;59.98;100307.44;5289203;26;20052;-94
2023/09/29 02:34:55;;;;;;;0.20;0.20;;;;;;;14.68;59.99;100314.50;5289469;26;20093;-94
2023/09/29 02:37:21;;;;;;;0.10;0.10;;;;;;;14.62;59.97;100312.09;5288545;26;20729;-94
2023/09/29 02:39:47;;;;;;;0.20;0.20;;;;;;;14.60;59.98;100308.69;5287982;26;20076;-95
2023/09/29 02:42:12;;;;;;;2.40;0.80;;;;;;;14.63;59.98;100308.56;5287904;26;20052;-96
2023/09/29 02:44:39;;;;;;;0.30;0.30;;;;;;;14.69;59.98;100311.81;5306515;26;20058;-94
2023/09/29 02:47:05;;;;;;;0.00;0.00;;;;;;;14.71;60.00;100307.38;5289361;26;20119;-95
2023/09/29 02:49:33;;;;;;;0.20;0.20;;;;;;;14.74;59.99;100307.22;5289086;26;20110;-95
2023/09/29 02:51:59;;;;;;;1.12;0.70;;;;;;;14.57;59.98;100304.44;5288853;26;20055;-94
2023/09/29 02:54:25;;;;;;;0.32;0.30;;;;;;;14.52;59.98;100309.00;5287848;26;20100;-94
2023/09/29 02:56:50;;;;;;;0.88;0.75;;;;;;;14.54;59.98;100304.56;5305710;26;20616;-93
2023/09/29 02:59:17;;;;;;;2.15;0.95;;;;;;;14.51;59.98;100307.28;5306155;26;20075;-94
2023/09/29 03:01:44;;;;;;;0.90;0.37;;;;;;;14.45;59.97;100310.16;5288199;26;20067;-93
2023/09/29 03:04:10;;;;;;;0.10;0.05;;;;;;;14.49;59.97;100301.28;5307430;26;20036;-95
2023/09/29 03:06:35;;;;;;;0.45;0.20;;;;;;;14.49;59.98;100300.41;5288509;26;20105;-95
2023/09/29 03:09:01;;;;;;;0.00;0.00;;;;;;;14.45;59.97;100306.69;5308567;26;20105;-94
2023/09/29 03:11:26;;;;;;;0.47;0.40;;;;;;;14.45;59.97;100301.44;5289824;26;20092;-93
2023/09/29 03:13:55;;;;;;;0.40;0.40;;;;;;;14.35;59.97;100306.16;5290025;26;20087;-93
2023/09/29 03:16:24;;;;;;;0.25;0.25;;;;;;;14.32;59.96;100301.87;5290580;26;20111;-94
2023/09/29 03:18:50;;;;;;;3.33;0.60;;;;;;;14.38;59.97;100304.25;5290976;26;20131;-93
2023/09/29 03:21:16;;;;;;;0.32;0.32;;;;;;;14.30;59.96;100303.72;5289938;26;20053;-92
2023/09/29 03:23:42;;;;;;;1.12;0.20;;;;;;;14.30;59.96;100301.09;5290047;26;20052;-93
2023/09/29 03:26:09;;;;;;;0.03;0.03;;;;;;;14.26;59.96;100303.88;5308792;26;20071;-94
2023/09/29 03:28:35;;;;;;;5.18;1.52;;;;;;;14.23;59.96;100302.25;5290375;26;20075;-93
2023/09/29 03:31:04;;;;;;;2.42;0.98;;;;;;;14.17;59.95;100305.06;5290242;26;20056;-93
2023/09/29 03:33:29;;;;;;;4.22;1.55;;;;;;;14.25;59.96;100305.66;5290990;26;20443;-93
2023/09/29 03:35:55;;;;;;;0.43;0.43;;;;;;;14.16;59.96;100305.97;5290025;26;20104;-93
2023/09/29 03:38:21;;;;;;;0.25;0.25;;;;;;;14.06;59.95;100304.63;5289450;26;20132;-93
2023/09/29 03:40:50;;;;;;;0.25;0.25;;;;;;;14.10;59.96;100316.69;5290090;26;20096;-94
2023/09/29 03:43:16;;;;;;;0.13;0.13;;;;;;;14.16;59.96;100316.47;5290386;26;20062;-94
2023/09/29 03:45:41;;;;;;;1.67;1.45;;;;;;;14.15;59.96;100312.13;5290200;26;20080;-95
2023/09/29 03:48:06;;;;;;;0.75;0.32;;;;;;;14.18;59.96;100309.41;5308773;26;20065;-95
2023/09/29 03:50:33;;;;;;;1.00;0.45;;;;;;;14.12;59.96;100314.87;5290464;26;20100;-93
2023/09/29 03:52:59;;;;;;;0.05;0.05;;;;;;;14.16;59.96;100318.22;5289973;26;20021;-93
2023/09/29 03:55:24;;;;;;;0.55;0.55;;;;;;;14.19;59.96;100321.56;5289867;26;20159;-93
2023/09/29 03:57:50;;;;;;;0.77;0.50;;;;;;;14.21;59.96;100318.94;5308012;26;20061;-93
2023/09/29 04:00:18;;;;;;;2.62;1.17;;;;;;;14.05;59.95;100323.88;5289055;26;20100;-93
2023/09/29 04:02:43;;;;;;;0.65;0.65;;;;;;;14.20;59.96;100319.84;5289787;26;20066;-92
2023/09/29 04:05:09;;;;;;;1.45;1.08;;;;;;;14.29;59.96;100315.09;5307494;26;20060;-92
2023/09/29 04:07:36;;;;;;;0.00;0.00;;;;;;;14.24;59.95;100314.44;5289422;26;20108;-92
2023/09/29 04:10:05;;;;;;;0.22;0.22;;;;;;;14.15;59.96;100320.00;5290272;26;20036;-94
2023/09/29 04:12:30;;;;;;;0.95;0.68;;;;;;;13.89;59.95;100317.47;5290518;26;20052;-94
2023/09/29 04:14:56;;;;;;;0.10;0.10;;;;;;;14.10;59.96;100321.94;5289460;26;20071;-95
2023/09/29 04:17:21;;;;;;;0.40;0.40;;;;;;;14.03;59.95;100321.31;5290160;26;20107;-94
2023/09/29 04:19:46;;;;;;;2.35;0.70;;;;;;;13.93;59.94;100319.06;5308220;26;20104;-94
2023/09/29 04:22:12;;;;;;;0.25;0.25;;;;;;;14.02;59.94;100321.38;5289749;26;20087;-95
2023/09/29 04:24:39;;;;;;;2.10;0.73;;;;;;;14.14;59.95;100323.53;5289675;26;20080;-95
2023/09/29 04:27:05;;;;;;;0.17;0.17;;;;;;;14.07;59.95;100322.91;5288998;26;20060;-92
2023/09/29 04:29:31;;;;;;;1.67;1.23;;;;;;;14.16;59.95;100323.47;5307326;26;20108;-92
2023/09/29 04:31:56;;;;;;;0.45;0.45;;;;;;;14.18;59.96;100322.50;5307997;26;20044;-92
2023/09/29 04:34:23;;;;;;;0.10;0.10;;;;;;;14.13;59.96;100327.91;5288627;26;24374;-92
2023/09/29 04:36:48;;;;;;;2.45;1.05;;;;;;;14.05;59.95;100324.72;5288853;26;20064;-92
2023/09/29 04:39:15;;;;;;;0.20;0.20;;;;;;;14.02;59.96;100327.47;5288622;26;20369;-91
2023/09/29 04:41:40;;;;;;;0.25;0.25;;;;;;;13.95;59.94;100333.81;5289228;26;20116;-92
2023/09/29 04:44:06;;;;;;;1.95;1.23;;;;;;;13.91;59.95;100328.75;5289787;26;20061;-92
2023/09/29 04:46:33;;;;;;;0.55;0.55;;;;;;;13.88;59.95;100327.09;5289530;26;20060;-91
2023/09/29 04:48:59;;;;;;;0.57;0.57;;;;;;;14.06;59.95;100338.66;5290165;26;20696;-93
2023/09/29 04:51:25;;;;;;;0.20;0.20;;;;;;;13.99;59.94;100335.44;5289532;26;20049;-92
2023/09/29 04:53:50;;;;;;;0.88;0.52;;;;;;;13.95;59.94;100339.03;5307734;26;20056;-94
2023/09/29 04:56:15;;;;;;;0.62;0.20;;;;;;;14.03;59.96;100344.03;5290342;26;20076;-94
2023/09/29 04:58:41;;;;;;;1.08;0.93;;;;;;;14.12;59.95;100336.66;5290412;26;20067;-95
2023/09/29 05:01:06;;;;;;;1.12;0.30;;;;;;;14.14;59.96;100340.09;5308600;26;20052;-95
2023/09/29 05:03:32;;;;;;;0.13;0.13;;;;;;;14.24;59.96;100331.91;5289940;26;20148;-95
2023/09/29 05:05:57;;;;;;;0.32;0.32;;;;;;;14.15;59.96;100346.16;5290155;26;20060;-94
2023/09/29 05:08:23;;;;;;;0.17;0.17;;;;;;;14.38;59.97;100340.06;5308119;26;20100;-95
2023/09/29 05:10:48;;;;;;;0.93;0.75;;;;;;;14.29;59.97;100350.91;5307967;26;20108;-96
2023/09/29 05:13:15;;;;;;;0.52;0.43;;;;;;;14.43;59.97;100346.91;5289116;26;20071;-95
2023/09/29 05:15:41;;;;;;;0.85;0.73;;;;;;;14.52;59.98;100339.59;5290178;26;20068;-95
2023/09/29 05:18:06;;;;;;;1.65;1.45;;;;;;;14.53;59.98;100341.28;5308270;26;20095;-96
2023/09/29 05:20:31;;;;;;;0.10;0.10;;;;;;;14.56;59.98;100344.63;5290883;26;20071;-95
2023/09/29 05:22:57;;;;;;;0.10;0.10;;;;;;;14.55;59.98;100339.47;5290522;26;20393;-96
2023/09/29 05:25:23;;;;;;;0.30;0.30;;;;;;;14.68;59.98;100343.31;5292127;26;20084;-95
2023/09/29 05:27:48;;;;;;;1.67;1.30;;;;;;;14.69;59.98;100347.66;5306578;26;20053;-96
2023/09/29 05:30:15;;;;;;;0.17;0.17;;;;;;;14.88;60.00;100342.50;5307105;26;20064;-96
2023/09/29 05:32:40;;;;;;;1.85;1.37;;;;;;;14.89;60.00;100345.06;5297801;26;20025;-95
2023/09/29 05:35:07;;;;;;;0.30;0.30;;;;;;;14.92;60.00;100344.97;5294192;26;20354;-95
2023/09/29 05:37:32;;;;;;;0.80;0.28;;;;;;;15.04;60.01;100348.84;5292358;26;20072;-95
2023/09/29 05:40:03;;;;;;;1.17;0.98;;;;;;;15.25;60.02;100344.50;5290238;26;20094;-96
2023/09/29 05:42:32;;;;;;;1.87;1.12;;;;;;;15.32;60.03;100345.94;5291769;26;20061;-95
2023/09/29 05:44:57;;;;;;;0.20;0.20;;;;;;;15.40;60.02;100346.47;5290101;26;20063;-96
2023/09/29 05:47:23;;;;;;;0.25;0.25;;;;;;;15.50;60.03;100347.78;5307102;26;20484;-95
2023/09/29 05:49:48;;;;;;;1.00;0.73;;;;;;;15.48;60.03;100349.63;5288388;26;20079;-95
2023/09/29 05:52:13;;;;;;;4.28;1.30;;;;;;;15.61;60.03;100345.59;5288758;26;20115;-95
2023/09/29 05:54:39;;;;;;;0.45;0.45;;;;;;;15.75;60.04;100347.59;5288916;26;20078;-96
2023/09/29 05:57:04;;;;;;;1.02;0.60;;;;;;;15.93;60.05;100351.19;5288876;26;20088;-95
2023/09/29 05:59:30;;;;;;;1.10;1.00;;;;;;;16.10;60.06;100345.19;5288764;26;20187;-95
2023/09/29 06:01:56;;;;;;;4.43;1.87;;;;;;;16.35;60.07;100352.81;5306758;26;20164;-95
2023/09/29 06:04:22;;;;;;;8.70;2.75;;;;;;;16.38;60.07;100336.91;5288749;26;20056;-96
2023/09/29 06:06:47;;;;;;;0.30;0.30;;;;;;;16.65;60.09;100338.22;5288917;26;20184;-95
2023/09/29 06:09:13;;;;;;;1.48;0.85;;;;;;;16.82;60.09;100346.19;5288787;26;20160;-94
2023/09/29 06:11:39;;;;;;;1.85;1.62;;;;;;;17.11;60.12;100349.19;5288425;26;20061;-96
2023/09/29 06:14:05;;;;;;;0.75;0.75;;;;;;;17.25;60.12;100340.59;5288943;26;20057;-96
2023/09/29 06:16:30;;;;;;;1.67;0.95;;;;;;;17.35;60.13;100347.97;5288961;26;20048;-95
2023/09/29 06:18:56;;;;;;;0.20;0.20;;;;;;;17.60;60.14;100341.44;5288680;26;20100;-95
2023/09/29 06:21:22;;;;;;;2.35;1.50;;;;;;;17.64;60.14;100349.09;5288463;26;20127;-95
2023/09/29 06:23:47;;;;;;;0.60;0.60;;;;;;;17.70;60.15;100347.97;5307021;26;20064;-96
2023/09/29 06:26:12;;;;;;;0.30;0.30;;;;;;;17.84;60.15;100342.84;5288287;26;20121;-95
2023/09/29 06:28:38;;;;;;;0.50;0.50;;;;;;;18.00;60.17;100354.28;5288263;26;20127;-95
2023/09/29 06:31:04;;;;;;;0.25;0.25;;;;;;;18.04;60.17;100349.69;5288490;26;20115;-95
2023/09/29 06:33:29;;;;;;;2.72;1.08;;;;;;;18.18;60.17;100354.22;5288680;26;20347;-95
2023/09/29 06:35:54;;;;;;;0.65;0.60;;;;;;;18.37;60.18;100361.03;5288514;26;20546;-95
2023/09/29 06:38:20;;;;;;;0.35;0.35;;;;;;;18.42;60.18;100359.00;5289594;26;20077;-95
2023/09/29 06:40:45;;;;;;;0.50;0.50;;;;;;;18.54;60.18;100357.50;5289411;26;20495;-95
2023/09/29 06:43:11;;;;;;;0.45;0.45;;;;;;;18.88;60.21;100355.63;5289585;26;20068;-96
2023/09/29 06:45:36;;;;;;;0.85;0.85;;;;;;;18.91;60.20;100358.09;5289508;26;20095;-95
2023/09/29 06:48:06;;;;;;;4.93;0.70;;;;;;;19.20;60.22;100356.44;5289343;26;20048;-96
2023/09/29 06:50:31;;;;;;;0.52;0.52;;;;;;;19.27;60.23;100353.34;5280807;26;20098;-95
2023/09/29 06:52:57;;;;;;;2.35;1.62;;;;;;;19.26;60.23;100353.44;5289248;26;20107;-95
2023/09/29 06:55:22;;;;;;;0.65;0.65;;;;;;;19.41;60.24;100349.06;5289567;26;20086;-96
2023/09/29 06:57:48;;;;;;;3.28;1.92;;;;;;;19.43;60.23;100352.47;5289411;26;20052;-96
2023/09/29 07:00:13;;;;;;;0.30;0.30;;;;;;;19.74;60.25;100355.00;5289745;26;20060;-96
2023/09/29 07:02:39;;;;;;;0.68;0.60;;;;;;;19.89;60.26;100362.00;5289526;26;20416;-96
2023/09/29 07:05:05;;;;;;;0.37;0.30;;;;;;;20.02;60.27;100367.38;5289421;26;20052;-96
2023/09/29 07:07:31;;;;;;;0.98;0.98;;;;;;;20.16;60.28;100367.38;5289448;26;20044;-96
2023/09/29 07:09:57;;;;;;;4.00;1.67;;;;;;;20.24;60.29;100362.47;5307759;26;20079;-95
2023/09/29 07:12:22;;;;;;;0.03;0.03;;;;;;;20.36;60.29;100373.22;5289345;26;20326;-96
2023/09/29 07:14:48;;;;;;;0.70;0.55;;;;;;;20.58;60.29;100370.09;5307386;26;20100;-95
2023/09/29 07:17:13;;;;;;;2.08;1.62;;;;;;;20.69;60.30;100372.91;5289050;26;20104;-95
2023/09/29 07:19:39;;;;;;;17.70;1.60;;;;;;;20.90;60.31;100370.69;5289371;26;20075;-96
2023/09/29 07:22:04;;;;;;;0.37;0.37;;;;;;;21.01;60.31;100374.31;5289161;26;20100;-95
2023/09/29 07:24:30;;;;;;;0.57;0.55;;;;;;;21.24;60.32;100364.06;5289132;26;20070;-95
2023/09/29 07:26:55;;;;;;;0.15;0.15;;;;;;;21.28;60.33;100365.53;5289409;26;20096;-95
2023/09/29 07:29:21;;;;;;;3.40;1.33;;;;;;;21.44;60.34;100366.22;5307472;26;20416;-94
2023/09/29 07:31:47;;;;;;;1.25;1.10;;;;;;;21.44;60.34;100371.53;5289227;26;20087;-95
2023/09/29 07:34:13;;;;;;;0.80;0.80;;;;;;;21.71;60.36;100369.66;5307385;26;20174;-95
2023/09/29 07:36:39;;;;;;;0.52;0.50;;;;;;;21.81;60.36;100369.03;5289382;26;20664;-96
2023/09/29 07:39:05;;;;;;;1.67;0.60;;;;;;;21.99;60.37;100365.09;5289698;26;20056;-95
2023/09/29 07:41:30;;;;;;;0.20;0.20;;;;;;;22.06;60.37;100369.06;5289241;26;20198;-95
2023/09/29 07:43:56;;;;;;;0.10;0.10;;;;;;;22.22;60.38;100367.00;5289057;26;20092;-96
2023/09/29 07:46:22;;;;;;;1.27;0.62;;;;;;;22.47;60.39;100370.56;5289216;26;20067;-95
2023/09/29 07:48:47;;;;;;;0.45;0.45;;;;;;;22.54;60.40;100371.84;5288626;26;20069;-95
2023/09/29 07:51:13;;;;;;;0.70;0.70;;;;;;;22.51;60.40;100364.12;5289166;26;20104;-95
2023/09/29 07:53:38;;;;;;;5.57;1.60;;;;;;;22.59;60.40;100365.25;5289399;26;20048;-95
2023/09/29 07:56:04;;;;;;;1.35;0.93;;;;;;;22.73;60.40;100366.06;5289311;26;20401;-95
2023/09/29 07:58:29;;;;;;;0.10;0.10;;;;;;;22.88;60.42;100376.44;5289319;26;20078;-95
2023/09/29 08:00:55;;;;;;;0.30;0.30;;;;;;;22.90;60.42;100366.53;5289199;26;20119;-96
2023/09/29 08:03:20;;;;;;;2.08;1.35;;;;;;;23.07;60.42;100360.00;5301523;26;20112;-96
2023/09/29 08:05:45;;;;;;;12.43;1.23;;;;;;;23.08;60.43;100363.50;5305508;26;20090;-95
2023/09/29 08:08:11;;;;;;;0.77;0.77;;;;;;;23.15;60.43;100362.06;5291804;26;20105;-95
2023/09/29 08:10:36;;;;;;;2.65;1.00;;;;;;;23.27;60.44;100369.13;5289456;26;20056;-94
2023/09/29 08:13:02;;;;;;;2.53;1.45;;;;;;;23.41;60.44;100368.94;5308006;26;20103;-95
2023/09/29 08:15:27;;;;;;;0.77;0.77;;;;;;;23.53;60.45;100369.81;5307420;26;20056;-96
2023/09/29 08:17:53;;;;;;;1.50;1.02;;;;;;;23.58;60.46;100367.69;5289273;26;20439;-96
2023/09/29 08:20:20;;;;;;;0.70;0.70;;;;;;;23.63;60.46;100362.87;5289717;26;20336;-96
2023/09/29 08:22:45;;;;;;;0.28;0.28;;;;;;;23.91;60.47;100368.75;5307927;26;20060;-96
2023/09/29 08:25:11;;;;;;;0.65;0.65;;;;;;;23.71;60.46;100368.47;5289149;26;20098;-96
2023/09/29 08:27:39;;;;;;;0.93;0.70;;;;;;;23.83;60.48;100371.97;5289226;26;20052;-96
2023/09/29 08:30:06;;;;;;;2.40;1.17;;;;;;;23.84;60.47;100373.66;5288815;26;20078;-96
2023/09/29 08:32:32;;;;;;;0.45;0.45;;;;;;;23.86;60.47;100367.25;5289666;26;20048;-95
2023/09/29 08:34:58;;;;;;;0.68;0.30;;;;;;;23.98;60.48;100362.81;5289126;26;20071;-95
2023/09/29 08:37:23;;;;;;;1.85;0.95;;;;;;;23.99;60.48;100377.81;5289293;26;20065;-96
2023/09/29 08:39:50;;;;;;;0.25;0.25;;;;;;;24.13;60.49;100361.63;5289264;26;20127;-96
2023/09/29 08:42:39;;;;;;;1.02;0.95;;;;;;;24.21;60.49;100366.34;5289498;26;20047;-96
2023/09/29 08:45:09;;;;;;;0.85;0.60;;;;;;;24.42;60.50;100355.84;5294031;26;20059;-96
2023/09/29 08:47:36;;;;;;;1.75;1.37;;;;;;;24.48;60.50;100368.66;5289849;26;20060;-95
2023/09/29 08:50:01;;;;;;;0.47;0.30;;;;;;;24.58;60.51;100355.44;5307792;26;20032;-96
2023/09/29 08:52:28;;;;;;;2.87;1.90;;;;;;;24.77;60.52;100359.13;5288379;26;20067;-96
2023/09/29 08:54:55;;;;;;;0.55;0.35;;;;;;;24.70;60.52;100357.12;5289427;26;20717;-96
2023/09/29 08:57:20;;;;;;;0.50;0.50;;;;;;;24.82;60.52;100355.25;5325475;26;20074;-95
2023/09/29 08:59:46;;;;;;;0.50;0.50;;;;;;;24.74;60.51;100363.88;5288904;26;20100;-96
2023/09/29 09:02:11;;;;;;;0.62;0.45;;;;;;;24.62;60.51;100373.72;5288893;26;20091;-95
2023/09/29 09:04:37;;;;;;;6.43;0.68;;;;;;;24.63;60.51;100372.75;5288653;26;20052;-96
2023/09/29 09:07:02;;;;;;;0.40;0.40;;;;;;;24.90;60.54;100367.00;5289051;26;20105;-96
2023/09/29 09:09:28;;;;;;;7.72;1.02;;;;;;;24.96;60.53;100363.81;5307131;26;20052;-96
2023/09/29 09:11:54;;;;;;;1.00;0.68;;;;;;;24.97;60.53;100367.31;5289166;26;20052;-96
2023/09/29 09:14:19;;;;;;;0.80;0.80;;;;;;;25.25;60.55;100364.09;5288997;26;20161;-95
2023/09/29 09:16:45;;;;;;;0.28;0.28;;;;;;;25.33;60.55;100371.47;5288618;26;20056;-96
2023/09/29 09:19:14;;;;;;;0.93;0.88;;;;;;;25.31;60.55;100366.25;5289364;26;20123;-96
2023/09/29 09:21:41;;;;;;;1.80;0.60;;;;;;;25.45;60.55;100365.09;5289082;26;20071;-96
2023/09/29 09:24:18;;;;;;;0.60;0.60;;;;;;;25.50;60.56;100367.38;5288967;26;20044;-96
2023/09/29 09:26:46;;;;;;;1.35;1.20;;;;;;;25.66;60.57;100367.75;5289625;26;20065;-96
2023/09/29 09:29:15;;;;;;;0.85;0.45;;;;;;;25.75;60.57;100369.66;5289499;26;20056;-96
2023/09/29 09:31:50;;;;;;;1.83;1.00;;;;;;;25.94;60.58;100360.94;5307750;26;20064;-96
2023/09/29 09:34:16;;;;;;;1.15;1.05;;;;;;;26.14;60.59;100361.88;5290925;26;20335;-96
2023/09/29 09:36:47;;;;;;;1.45;1.35;;;;;;;26.09;60.60;100351.63;5289013;26;20060;-96
2023/09/29 09:39:12;;;;;;;1.15;1.05;;;;;;;26.13;60.60;100355.69;5288871;26;20133;-96
2023/09/29 09:41:38;;;;;;;0.50;0.50;;;;;;;26.24;60.61;100352.91;5288652;26;20103;-96
2023/09/29 09:44:04;;;;;;;0.10;0.10;;;;;;;26.33;60.61;100348.63;5288874;26;20105;-96
2023/09/29 09:46:33;;;;;;;0.65;0.65;;;;;;;26.44;60.61;100347.69;5288979;26;20075;-96
2023/09/29 09:49:08;;;;;;;12.60;1.02;;;;;;;26.64;60.63;100348.59;5289652;26;20068;-96
2023/09/29 09:51:39;;;;;;;0.62;0.62;;;;;;;26.72;60.63;100348.72;5281562;26;20053;-96
2023/09/29 09:54:08;;;;;;;2.87;1.77;;;;;;;26.74;60.63;100342.28;5289167;26;20454;-96
2023/09/29 09:56:47;;;;;;;0.75;0.65;;;;;;;26.68;60.62;100340.16;5289606;26;20065;-95
2023/09/29 09:59:16;;;;;;;0.05;0.05;;;;;;;26.97;60.64;100339.34;5289607;26;20056;-95
2023/09/29 10:01:43;;;;;;;0.10;0.10;;;;;;;27.05;60.64;100337.72;5306919;26;20051;-96
2023/09/29 10:04:12;;;;;;;1.40;1.10;;;;;;;27.36;60.66;100342.88;5306866;26;20659;-96
2023/09/29 10:06:37;;;;;;;0.93;0.57;;;;;;;27.54;60.67;100335.84;5289537;26;20095;-96
2023/09/29 10:09:11;;;;;;;0.85;0.45;;;;;;;27.53;60.67;100337.66;5288975;26;20124;-96
2023/09/29 10:11:37;;;;;;;0.52;0.40;;;;;;;27.63;60.67;100335.00;5308408;26;20074;-96
2023/09/29 10:14:25;;;;;;;0.47;0.47;;;;;;;27.79;60.68;100331.72;5289860;26;20044;-96
2023/09/29 10:17:03;;;;;;;0.32;0.32;;;;;;;27.91;60.69;100319.84;5308208;26;20053;-96
2023/09/29 10:19:38;;;;;;;5.18;0.75;;;;;;;27.88;60.68;100328.16;5289631;26;20039;-96
2023/09/29 10:22:04;;;;;;;23.25;1.12;;;;;;;27.80;60.67;100328.91;5290068;26;20056;-95
2023/09/29 10:24:30;;;;;;;1.75;1.45;;;;;;;27.91;60.69;100335.87;5289580;26;20093;-95
2023/09/29 10:26:59;;;;;;;0.60;0.30;;;;;;;28.08;60.69;100327.09;5307893;26;20068;-96
2023/09/29 10:29:37;;;;;;;1.83;0.83;;;;;;;28.32;60.71;100317.72;5290536;26;20111;-96
2023/09/29 10:32:16;;;;;;;0.80;0.68;;;;;;;28.34;60.70;100321.94;5291573;26;20128;-96
2023/09/29 10:34:42;;;;;;;1.58;0.80;;;;;;;28.57;60.72;100322.37;5291688;26;20068;-96
2023/09/29 10:37:10;;;;;;;1.10;1.00;;;;;;;28.54;60.73;100320.00;5289808;26;20064;-96
2023/09/29 10:39:36;;;;;;;5.95;0.73;;;;;;;28.79;60.73;100317.56;5308835;26;20055;-96
2023/09/29 10:42:14;;;;;;;0.32;0.32;;;;;;;28.82;60.74;100311.91;5310138;26;20405;-96
2023/09/29 10:44:55;;;;;;;0.68;0.52;;;;;;;28.54;60.72;100311.97;5309308;26;20021;-95
2023/09/29 10:47:31;;;;;;;0.43;0.43;;;;;;;28.57;60.72;100306.28;5323242;26;20123;-96
2023/09/29 10:50:04;;;;;;;5.05;0.80;;;;;;;28.50;60.72;100309.72;5308540;26;20060;-96
2023/09/29 10:52:30;;;;;;;5.57;1.20;;;;;;;28.52;60.72;100308.59;5290120;26;20052;-96
2023/09/29 10:54:58;;;;;;;0.68;0.68;;;;;;;28.69;60.74;100305.09;5288239;26;20052;-96
2023/09/29 10:57:25;;;;;;;2.05;0.93;;;;;;;28.67;60.73;100292.84;5290462;26;20076;-96
2023/09/29 10:59:52;;;;;;;0.50;0.45;;;;;;;28.33;60.71;100293.47;5307592;26;20075;-96
2023/09/29 11:02:22;;;;;;;0.77;0.77;;;;;;;28.41;60.72;100290.06;5289799;26;20056;-96
2023/09/29 11:04:53;;;;;;;0.93;0.70;;;;;;;28.69;60.74;100285.50;5290319;26;20472;-96
2023/09/29 11:07:23;;;;;;;2.58;1.30;;;;;;;28.84;60.73;100283.09;5290630;26;20060;-96
2023/09/29 11:09:48;;;;;;;0.50;0.50;;;;;;;28.91;60.73;100281.56;5290234;26;20153;-96
2023/09/29 11:12:30;;;;;;;;;;;;;;;;;;;;;
2023/09/29 11:15:07;;;;;;;1.80;1.70;;;;;;;28.86;60.74;100268.59;5310719;26;35903;-96
2023/09/29 11:17:51;;;;;;;0.85;0.85;;;;;;;28.86;60.74;100267.75;5290692;26;20067;-96
2023/09/29 11:20:27;;;;;;;0.77;0.75;;;;;;;29.24;60.75;100266.56;5290715;26;20064;-96
2023/09/29 11:23:13;;;;;;;1.05;0.95;;;;;;;29.13;60.75;100269.50;5291919;26;20066;-96
2023/09/29 11:25:49;;;;;;;0.98;0.85;;;;;;;29.15;60.75;100265.66;5292460;26;20429;-96